createdAt,value
2023-01-12T00:02:13.322Z,7.78
2023-01-12T00:06:16.461Z,7.78
2023-01-12T00:10:18.681Z,7.71
2023-01-12T00:14:20.964Z,7.67
2023-01-12T00:18:23.235Z,7.64
2023-01-12T00:22:25.444Z,7.59
2023-01-12T00:26:27.551Z,7.38
2023-01-12T00:30:29.916Z,7.42
2023-01-12T00:34:32.493Z,7.40
2023-01-12T00:38:36.571Z,7.40
2023-01-12T00:42:57.361Z,7.26
2023-01-12T00:46:59.537Z,7.05
2023-01-12T00:51:05.227Z,6.91
2023-01-12T00:55:08.740Z,6.72
2023-01-12T00:59:10.991Z,6.85
2023-01-12T01:03:13.304Z,6.79
2023-01-12T01:07:16.329Z,6.83
2023-01-12T01:11:18.680Z,6.77
2023-01-12T01:15:20.934Z,6.71
2023-01-12T01:19:23.363Z,6.78
2023-01-12T01:23:27.010Z,6.91
2023-01-12T01:27:29.230Z,7.03
2023-01-12T01:31:31.560Z,7.11
2023-01-12T01:35:33.726Z,7.08
2023-01-12T01:39:36.044Z,7.13
2023-01-12T01:44:24.539Z,7.17
2023-01-12T01:48:29.159Z,7.21
2023-01-12T01:52:36.209Z,7.24
2023-01-12T01:56:38.498Z,7.25
2023-01-12T02:00:42.663Z,7.17
2023-01-12T02:04:45.346Z,7.17
2023-01-12T02:08:54.004Z,7.12
2023-01-12T02:13:14.694Z,7.13
2023-01-12T02:17:41.698Z,6.98
2023-01-12T02:22:10.113Z,6.97
2023-01-12T02:26:24.345Z,6.98
2023-01-12T02:30:46.521Z,7.02
2023-01-12T02:35:22.392Z,6.96
2023-01-12T02:39:28.153Z,7.04
2023-01-12T02:43:33.205Z,6.74
2023-01-12T02:47:52.247Z,6.65
2023-01-12T02:52:07.690Z,6.37
2023-01-12T02:56:14.146Z,6.44
2023-01-12T03:00:18.636Z,6.67
2023-01-12T03:04:22.692Z,6.73
2023-01-12T03:08:29.209Z,6.63
2023-01-12T03:12:38.463Z,6.69
2023-01-12T03:16:42.227Z,6.50
2023-01-12T03:20:52.043Z,6.48
2023-01-12T03:25:02.465Z,6.63
2023-01-12T03:29:16.156Z,6.62
2023-01-12T03:33:19.384Z,6.65
2023-01-12T03:37:39.831Z,6.60
2023-01-12T03:42:07.734Z,6.72
2023-01-12T03:46:16.415Z,6.44
2023-01-12T03:50:25.612Z,6.62
2023-01-12T03:54:29.834Z,6.68
2023-01-12T03:58:34.983Z,6.73
2023-01-12T04:02:37.269Z,6.53
2023-01-12T04:06:39.478Z,6.54
2023-01-12T04:10:41.708Z,6.61
2023-01-12T04:14:48.069Z,6.62
2023-01-12T04:18:50.414Z,6.54
2023-01-12T04:22:52.603Z,6.56
2023-01-12T04:26:54.896Z,6.64
2023-01-12T04:30:57.085Z,6.46
2023-01-12T04:34:59.255Z,6.48
2023-01-12T04:39:01.639Z,6.52
2023-01-12T04:43:11.071Z,6.53
2023-01-12T04:47:13.368Z,6.39
2023-01-12T04:51:15.765Z,6.49
2023-01-12T04:55:18.089Z,6.59
2023-01-12T04:59:20.341Z,6.56
2023-01-12T05:03:22.606Z,6.55
2023-01-12T05:07:24.943Z,6.56
2023-01-12T05:11:28.653Z,6.53
2023-01-12T05:15:30.839Z,6.46
2023-01-12T05:19:33.080Z,6.54
2023-01-12T05:23:35.502Z,6.58
2023-01-12T05:27:37.795Z,6.55
2023-01-12T05:31:40.445Z,6.61
2023-01-12T05:35:42.651Z,6.54
2023-01-12T05:39:44.882Z,6.53
2023-01-12T05:43:53.210Z,6.52
2023-01-12T05:48:02.498Z,6.51
2023-01-12T05:52:05.119Z,6.11
2023-01-12T05:56:10.549Z,6.12
2023-01-12T06:00:13.376Z,5.71
2023-01-12T06:04:15.662Z,5.76
2023-01-12T06:08:17.959Z,5.85
2023-01-12T06:12:38.781Z,5.85
2023-01-12T06:16:43.030Z,5.75
2023-01-12T06:20:45.355Z,5.55
2023-01-12T06:24:49.315Z,5.43
2023-01-12T06:28:51.571Z,5.33
2023-01-12T06:32:53.881Z,5.21
2023-01-12T06:36:56.074Z,5.19
2023-01-12T06:41:30.002Z,5.09
2023-01-12T06:45:32.276Z,5.07
2023-01-12T06:49:34.470Z,4.95
2023-01-12T06:53:36.796Z,4.90
2023-01-12T06:57:39.056Z,4.90
2023-01-12T07:01:41.723Z,4.87
2023-01-12T07:05:44.242Z,4.77
2023-01-12T07:09:46.653Z,4.77
2023-01-12T07:13:48.850Z,4.60
2023-01-12T07:17:56.169Z,4.61
2023-01-12T07:21:58.392Z,4.58
2023-01-12T07:26:00.985Z,4.74
2023-01-12T07:30:04.660Z,4.84
2023-01-12T07:34:06.905Z,5.08
2023-01-12T07:38:09.983Z,5.68
2023-01-12T07:42:24.478Z,6.42
2023-01-12T07:46:27.518Z,6.89
2023-01-12T07:50:29.924Z,7.12
2023-01-12T07:54:33.878Z,7.39
2023-01-12T07:58:37.524Z,7.67
2023-01-12T08:02:39.974Z,7.77
2023-01-12T08:06:42.643Z,7.90
2023-01-12T08:10:47.652Z,8.21
2023-01-12T08:14:49.941Z,8.32
2023-01-12T08:19:01.566Z,8.23
2023-01-12T08:23:28.308Z,8.29
2023-01-12T08:27:33.585Z,8.46
2023-01-12T08:31:36.478Z,8.59
2023-01-12T08:35:39.325Z,8.69
2023-01-12T08:39:42.138Z,8.87
2023-01-12T08:44:02.446Z,9.01
2023-01-12T08:48:05.663Z,9.24
2023-01-12T08:52:07.819Z,9.55
2023-01-12T08:56:10.296Z,9.79
2023-01-12T09:00:12.954Z,9.83
2023-01-12T09:04:15.281Z,9.98
2023-01-12T09:08:17.712Z,10.09
2023-01-12T09:12:20.093Z,10.08
2023-01-12T09:16:23.147Z,10.16
2023-01-12T09:20:25.392Z,10.30
2023-01-12T09:24:27.788Z,10.29
2023-01-12T09:28:30.151Z,10.21
2023-01-12T09:32:36.766Z,10.37
2023-01-12T09:36:40.456Z,10.47
2023-01-12T09:40:43.952Z,10.48
2023-01-12T09:45:10.080Z,10.63
2023-01-12T09:49:13.742Z,10.51
2023-01-12T09:53:21.464Z,10.58
2023-01-12T09:57:42.424Z,10.66
2023-01-12T10:01:45.977Z,10.72
2023-01-12T10:05:58.118Z,10.90
2023-01-12T10:10:00.528Z,11.08
2023-01-12T10:14:24.193Z,11.21
2023-01-12T10:18:47.450Z,11.32
2023-01-12T10:22:49.847Z,11.41
2023-01-12T10:27:00.593Z,11.40
2023-01-12T10:31:03.855Z,11.47
2023-01-12T10:35:14.425Z,11.52
2023-01-12T10:39:31.938Z,11.42
2023-01-12T10:43:36.924Z,11.49
2023-01-12T10:47:40.717Z,11.51
2023-01-12T10:51:58.029Z,11.47
2023-01-12T10:56:03.056Z,11.50
2023-01-12T11:00:05.934Z,11.53
2023-01-12T11:04:15.261Z,11.52
2023-01-12T11:08:27.200Z,11.67
2023-01-12T11:12:32.277Z,11.76
2023-01-12T11:16:50.482Z,11.84
2023-01-12T11:21:07.908Z,11.94
2023-01-12T11:25:17.768Z,12.00
2023-01-12T11:29:35.009Z,12.02
2023-01-12T11:33:44.407Z,11.96
2023-01-12T11:37:53.317Z,12.01
2023-01-12T11:42:17.503Z,12.05
2023-01-12T11:46:42.660Z,11.99
2023-01-12T11:50:47.582Z,12.05
2023-01-12T11:54:49.974Z,12.11
2023-01-12T11:59:07.457Z,12.22
2023-01-12T12:03:49.036Z,12.36
2023-01-12T12:08:06.840Z,12.46
2023-01-12T12:12:23.439Z,12.51
2023-01-12T12:16:39.704Z,12.48
2023-01-12T12:21:12.459Z,12.47
2023-01-12T12:25:27.063Z,12.57
2023-01-12T12:30:19.374Z,12.67
2023-01-12T12:34:55.493Z,12.80
2023-01-12T12:39:12.888Z,12.85
2023-01-12T12:43:41.864Z,12.94
2023-01-12T12:48:02.161Z,12.96
2023-01-12T12:52:05.654Z,13.01
2023-01-12T12:56:11.503Z,13.06
2023-01-12T13:00:43.606Z,13.15
2023-01-12T13:04:46.463Z,13.20
2023-01-12T13:08:51.252Z,13.12
2023-01-12T13:12:59.048Z,13.19
2023-01-12T13:17:02.199Z,13.25
2023-01-12T13:21:05.666Z,13.33
2023-01-12T13:25:16.718Z,13.27
2023-01-12T13:29:28.123Z,13.29
2023-01-12T13:33:30.373Z,13.31
2023-01-12T13:37:52.440Z,13.24
2023-01-12T13:42:14.212Z,13.19
2023-01-12T13:46:20.527Z,13.13
2023-01-12T13:50:25.553Z,13.11
2023-01-12T13:54:29.843Z,12.93
2023-01-12T13:58:41.344Z,12.93
2023-01-12T14:02:43.775Z,12.86
2023-01-12T14:07:30.741Z,12.77
2023-01-12T14:11:38.914Z,12.69
2023-01-12T14:16:03.140Z,12.66
2023-01-12T14:20:16.448Z,12.66
2023-01-12T14:24:23.683Z,12.70
2023-01-12T14:28:26.192Z,12.72
2023-01-12T14:32:29.873Z,12.55
2023-01-12T14:36:42.603Z,12.62
2023-01-12T14:40:58.349Z,12.60
2023-01-12T14:45:18.966Z,12.45
2023-01-12T14:49:28.789Z,12.50
2023-01-12T14:53:39.329Z,12.51
2023-01-12T14:57:42.475Z,12.50
2023-01-12T15:01:44.768Z,12.43
2023-01-12T15:05:52.512Z,12.30
2023-01-12T15:09:58.153Z,12.13
2023-01-12T15:14:02.025Z,11.98
2023-01-12T15:18:22.661Z,11.81
2023-01-12T15:22:47.449Z,11.71
2023-01-12T15:27:01.910Z,11.57
2023-01-12T15:31:28.234Z,11.43
2023-01-12T15:35:30.717Z,11.30
2023-01-12T15:39:32.904Z,11.12
2023-01-12T15:43:35.060Z,10.96
2023-01-12T15:47:37.236Z,10.78
2023-01-12T15:51:40.404Z,10.57
2023-01-12T15:55:42.948Z,10.36
2023-01-12T15:59:45.229Z,10.09
2023-01-12T16:04:15.044Z,9.84
2023-01-12T16:08:09.592Z,9.68
2023-01-12T16:12:11.770Z,9.60
2023-01-12T16:16:16.682Z,9.49
2023-01-12T16:20:20.359Z,9.30
2023-01-12T16:24:26.699Z,9.17
2023-01-12T16:28:29.250Z,8.99
2023-01-12T16:32:31.535Z,9.16
2023-01-12T16:36:33.944Z,9.04
2023-01-12T16:40:43.474Z,8.88
2023-01-12T16:44:45.622Z,8.82
2023-01-12T16:48:48.312Z,8.73
2023-01-12T16:52:50.625Z,8.62
2023-01-12T16:56:54.070Z,8.40
2023-01-12T17:00:58.685Z,8.23
2023-01-12T17:05:02.725Z,8.13
2023-01-12T17:09:06.624Z,8.21
2023-01-12T17:13:08.981Z,8.24
2023-01-12T17:17:12.594Z,8.31
2023-01-12T17:21:15.303Z,8.32
2023-01-12T17:25:17.741Z,8.27
2023-01-12T17:29:20.851Z,8.19
2023-01-12T17:33:23.365Z,8.06
2023-01-12T17:37:26.133Z,7.72
2023-01-12T17:41:46.843Z,7.72
2023-01-12T17:45:49.053Z,7.72
2023-01-12T17:49:52.758Z,7.71
2023-01-12T17:54:00.115Z,7.64
2023-01-12T17:58:03.189Z,7.60
2023-01-12T18:02:05.878Z,7.64
2023-01-12T18:06:12.015Z,7.13
2023-01-12T18:10:17.691Z,6.88
2023-01-12T18:14:21.681Z,6.94
2023-01-12T18:18:23.946Z,6.89
2023-01-12T18:22:26.431Z,6.79
2023-01-12T18:26:31.588Z,6.49
2023-01-12T18:30:33.893Z,6.46
2023-01-12T18:34:41.990Z,6.48
2023-01-12T18:38:46.025Z,6.42
2023-01-12T18:42:53.514Z,6.21
2023-01-12T18:47:16.680Z,6.10
2023-01-12T18:51:37.400Z,6.08
2023-01-12T18:55:41.539Z,5.93
2023-01-12T18:59:44.132Z,5.78
2023-01-12T19:03:46.515Z,5.69
2023-01-12T19:07:51.642Z,5.56
2023-01-12T19:11:53.753Z,5.56
2023-01-12T19:16:18.242Z,5.05
2023-01-12T19:20:21.364Z,4.96
2023-01-12T19:24:42.614Z,4.95
2023-01-12T19:28:44.741Z,4.93
2023-01-12T19:32:47.042Z,4.90
2023-01-12T19:36:49.915Z,4.32
2023-01-12T19:40:54.507Z,4.33
2023-01-12T19:44:56.849Z,4.38
2023-01-12T19:48:58.920Z,4.44
2023-01-12T19:53:01.164Z,4.31
2023-01-12T19:57:03.680Z,4.31
2023-01-12T20:01:05.901Z,4.40
2023-01-12T20:05:13.173Z,4.34
2023-01-12T20:09:15.812Z,4.28
2023-01-12T20:13:18.374Z,4.36
2023-01-12T20:17:20.829Z,4.25
2023-01-12T20:21:23.406Z,4.24
2023-01-12T20:25:28.107Z,4.06
2023-01-12T20:29:30.380Z,3.86
2023-01-12T20:33:32.660Z,3.58
2023-01-12T20:37:35.019Z,3.62
2023-01-12T20:41:39.406Z,3.67
2023-01-12T20:45:43.232Z,3.64
2023-01-12T20:49:47.243Z,3.66
2023-01-12T20:53:49.438Z,3.66
2023-01-12T20:57:51.639Z,3.73
2023-01-12T21:01:53.986Z,3.70
2023-01-12T21:05:56.330Z,3.67
2023-01-12T21:09:58.524Z,3.59
2023-01-12T21:14:00.693Z,3.43
2023-01-12T21:18:03.076Z,3.45
2023-01-12T21:22:05.482Z,3.09
2023-01-12T21:26:08.384Z,3.05
2023-01-12T21:30:12.596Z,3.17
2023-01-12T21:34:15.285Z,3.01
2023-01-12T21:38:18.205Z,2.60
2023-01-12T21:42:38.817Z,2.49
2023-01-12T21:46:40.898Z,2.04
2023-01-12T21:50:43.688Z,2.05
2023-01-12T21:54:45.979Z,2.09
2023-01-12T21:58:48.358Z,2.24
2023-01-12T22:02:53.742Z,2.32
2023-01-12T22:06:56.350Z,2.29
2023-01-12T22:11:07.557Z,2.41
2023-01-12T22:15:10.081Z,2.49
2023-01-12T22:19:12.323Z,2.61
2023-01-12T22:23:14.520Z,2.57
2023-01-12T22:27:16.811Z,2.34
2023-01-12T22:31:21.423Z,2.33
2023-01-12T22:35:23.612Z,2.52
2023-01-12T22:39:25.688Z,2.52
2023-01-12T22:43:27.868Z,2.52
2023-01-12T22:47:30.499Z,2.54
2023-01-12T22:51:32.692Z,2.59
2023-01-12T22:55:34.842Z,2.69
2023-01-12T22:59:37.151Z,2.66
2023-01-12T23:03:39.283Z,2.60
2023-01-12T23:07:41.370Z,2.76
2023-01-12T23:11:43.401Z,2.77
2023-01-12T23:15:56.847Z,2.77
2023-01-12T23:19:59.549Z,2.32
2023-01-12T23:24:01.618Z,2.51
2023-01-12T23:28:04.816Z,2.72
2023-01-12T23:32:06.919Z,2.80
2023-01-12T23:36:12.700Z,2.84
2023-01-12T23:40:14.977Z,2.88
2023-01-12T23:44:17.669Z,3.06
2023-01-12T23:48:19.842Z,3.02
2023-01-12T23:52:21.911Z,2.75
2023-01-12T23:56:24.085Z,2.86
